sensor_id;sensor_type;location;lat;lon;timestamp;temperature;humidity
30288;DHT22;17103;48.316;11.558;2022-11-14T00:01:28;11.20;50.00
30288;DHT22;17103;48.316;11.558;2022-11-14T00:03:53;11.30;50.10
30288;DHT22;17103;48.316;11.558;2022-11-14T00:06:19;11.30;50.00
30288;DHT22;17103;48.316;11.558;2022-11-14T00:08:45;11.30;49.70
30288;DHT22;17103;48.316;11.558;2022-11-14T00:11:11;11.40;49.70
30288;DHT22;17103;48.316;11.558;2022-11-14T00:13:37;11.40;49.80
30288;DHT22;17103;48.316;11.558;2022-11-14T00:16:03;11.40;49.70
30288;DHT22;17103;48.316;11.558;2022-11-14T00:18:30;11.40;49.60
30288;DHT22;17103;48.316;11.558;2022-11-14T00:20:55;11.50;49.80
30288;DHT22;17103;48.316;11.558;2022-11-14T00:23:21;11.60;49.70
30288;DHT22;17103;48.316;11.558;2022-11-14T00:25:47;11.70;49.80
30288;DHT22;17103;48.316;11.558;2022-11-14T00:28:13;11.60;49.60
30288;DHT22;17103;48.316;11.558;2022-11-14T00:30:40;11.60;49.00
30288;DHT22;17103;48.316;11.558;2022-11-14T00:33:09;11.60;49.10
30288;DHT22;17103;48.316;11.558;2022-11-14T00:35:35;12.40;49.70
30288;DHT22;17103;48.316;11.558;2022-11-14T00:38:04;11.60;49.00
30288;DHT22;17103;48.316;11.558;2022-11-14T00:40:30;11.60;49.10
30288;DHT22;17103;48.316;11.558;2022-11-14T00:42:56;12.00;49.40
30288;DHT22;17103;48.316;11.558;2022-11-14T00:45:23;11.60;49.30
30288;DHT22;17103;48.316;11.558;2022-11-14T00:47:48;11.60;49.40
30288;DHT22;17103;48.316;11.558;2022-11-14T00:50:15;11.60;49.70
30288;DHT22;17103;48.316;11.558;2022-11-14T00:52:41;11.60;50.10
30288;DHT22;17103;48.316;11.558;2022-11-14T00:55:07;12.10;50.60
30288;DHT22;17103;48.316;11.558;2022-11-14T00:57:33;11.70;50.30
30288;DHT22;17103;48.316;11.558;2022-11-14T00:59:58;11.70;50.00
30288;DHT22;17103;48.316;11.558;2022-11-14T01:02:25;11.80;50.00
30288;DHT22;17103;48.316;11.558;2022-11-14T01:04:52;11.90;49.90
30288;DHT22;17103;48.316;11.558;2022-11-14T01:07:19;11.90;49.70
30288;DHT22;17103;48.316;11.558;2022-11-14T01:09:51;12.00;49.40
30288;DHT22;17103;48.316;11.558;2022-11-14T01:12:17;12.00;49.40
30288;DHT22;17103;48.316;11.558;2022-11-14T01:14:42;12.00;49.20
30288;DHT22;17103;48.316;11.558;2022-11-14T01:17:08;12.10;49.10
30288;DHT22;17103;48.316;11.558;2022-11-14T01:19:34;12.10;48.90
30288;DHT22;17103;48.316;11.558;2022-11-14T01:22:00;12.10;48.90
30288;DHT22;17103;48.316;11.558;2022-11-14T01:24:26;12.10;48.90
30288;DHT22;17103;48.316;11.558;2022-11-14T01:26:54;12.10;48.90
30288;DHT22;17103;48.316;11.558;2022-11-14T01:29:20;13.00;49.60
30288;DHT22;17103;48.316;11.558;2022-11-14T01:31:46;12.10;48.90
30288;DHT22;17103;48.316;11.558;2022-11-14T01:34:12;12.60;49.30
30288;DHT22;17103;48.316;11.558;2022-11-14T01:36:39;12.20;48.70
30288;DHT22;17103;48.316;11.558;2022-11-14T01:39:05;12.20;48.70
30288;DHT22;17103;48.316;11.558;2022-11-14T01:41:32;12.20;48.50
30288;DHT22;17103;48.316;11.558;2022-11-14T01:43:58;13.10;49.00
30288;DHT22;17103;48.316;11.558;2022-11-14T01:46:31;13.10;48.80
30288;DHT22;17103;48.316;11.558;2022-11-14T01:49:27;12.10;47.80
30288;DHT22;17103;48.316;11.558;2022-11-14T01:52:02;12.10;48.20
30288;DHT22;17103;48.316;11.558;2022-11-14T01:54:32;12.10;47.70
30288;DHT22;17103;48.316;11.558;2022-11-14T01:57:00;11.90;47.70
30288;DHT22;17103;48.316;11.558;2022-11-14T01:59:31;11.90;47.80
30288;DHT22;17103;48.316;11.558;2022-11-14T02:02:01;11.80;47.90
30288;DHT22;17103;48.316;11.558;2022-11-14T02:04:34;11.70;48.00
30288;DHT22;17103;48.316;11.558;2022-11-14T02:07:02;11.70;48.50
30288;DHT22;17103;48.316;11.558;2022-11-14T02:09:34;11.60;48.50
30288;DHT22;17103;48.316;11.558;2022-11-14T02:12:05;11.60;48.30
30288;DHT22;17103;48.316;11.558;2022-11-14T02:14:34;11.50;48.20
30288;DHT22;17103;48.316;11.558;2022-11-14T02:17:02;11.40;48.40
30288;DHT22;17103;48.316;11.558;2022-11-14T02:19:55;12.00;49.10
30288;DHT22;17103;48.316;11.558;2022-11-14T02:22:22;11.30;49.00
30288;DHT22;17103;48.316;11.558;2022-11-14T02:24:48;11.90;49.40
30288;DHT22;17103;48.316;11.558;2022-11-14T02:27:14;11.20;48.80
30288;DHT22;17103;48.316;11.558;2022-11-14T02:29:41;11.30;48.90
30288;DHT22;17103;48.316;11.558;2022-11-14T02:32:07;11.10;48.60
30288;DHT22;17103;48.316;11.558;2022-11-14T02:34:32;11.20;49.10
30288;DHT22;17103;48.316;11.558;2022-11-14T02:36:58;11.10;49.00
30288;DHT22;17103;48.316;11.558;2022-11-14T02:39:24;11.10;49.10
30288;DHT22;17103;48.316;11.558;2022-11-14T02:41:50;11.00;49.40
30288;DHT22;17103;48.316;11.558;2022-11-14T02:44:17;11.00;49.30
30288;DHT22;17103;48.316;11.558;2022-11-14T02:46:43;10.90;49.50
30288;DHT22;17103;48.316;11.558;2022-11-14T02:49:08;10.90;49.50
30288;DHT22;17103;48.316;11.558;2022-11-14T02:51:37;11.10;49.90
30288;DHT22;17103;48.316;11.558;2022-11-14T02:54:03;11.30;50.30
30288;DHT22;17103;48.316;11.558;2022-11-14T02:56:28;10.90;50.10
30288;DHT22;17103;48.316;11.558;2022-11-14T02:58:54;10.90;50.20
30288;DHT22;17103;48.316;11.558;2022-11-14T03:01:20;10.90;49.80
30288;DHT22;17103;48.316;11.558;2022-11-14T03:03:47;11.00;50.10
30288;DHT22;17103;48.316;11.558;2022-11-14T03:06:14;11.00;50.00
30288;DHT22;17103;48.316;11.558;2022-11-14T03:08:39;11.10;50.00
30288;DHT22;17103;48.316;11.558;2022-11-14T03:11:07;11.10;49.80
30288;DHT22;17103;48.316;11.558;2022-11-14T03:13:33;11.10;49.80
30288;DHT22;17103;48.316;11.558;2022-11-14T03:16:07;11.10;49.50
30288;DHT22;17103;48.316;11.558;2022-11-14T03:18:34;11.10;49.80
30288;DHT22;17103;48.316;11.558;2022-11-14T03:21:05;11.20;49.90
30288;DHT22;17103;48.316;11.558;2022-11-14T03:23:31;11.20;50.00
30288;DHT22;17103;48.316;11.558;2022-11-14T03:26:03;11.30;49.80
30288;DHT22;17103;48.316;11.558;2022-11-14T03:28:29;11.30;49.80
30288;DHT22;17103;48.316;11.558;2022-11-14T03:31:01;11.30;49.80
30288;DHT22;17103;48.316;11.558;2022-11-14T03:33:27;11.30;49.80
30288;DHT22;17103;48.316;11.558;2022-11-14T03:35:56;11.40;49.80
30288;DHT22;17103;48.316;11.558;2022-11-14T03:38:22;11.90;50.10
30288;DHT22;17103;48.316;11.558;2022-11-14T03:40:48;11.40;49.40
30288;DHT22;17103;48.316;11.558;2022-11-14T03:43:15;11.40;49.30
30288;DHT22;17103;48.316;11.558;2022-11-14T03:45:41;12.20;49.70
30288;DHT22;17103;48.316;11.558;2022-11-14T03:48:08;11.50;49.00
30288;DHT22;17103;48.316;11.558;2022-11-14T03:50:34;11.40;49.00
30288;DHT22;17103;48.316;11.558;2022-11-14T03:53:02;11.40;49.10
30288;DHT22;17103;48.316;11.558;2022-11-14T03:55:27;11.40;49.00
30288;DHT22;17103;48.316;11.558;2022-11-14T03:57:53;11.40;48.90
30288;DHT22;17103;48.316;11.558;2022-11-14T04:00:20;11.30;49.10
30288;DHT22;17103;48.316;11.558;2022-11-14T04:02:50;11.30;49.20
30288;DHT22;17103;48.316;11.558;2022-11-14T04:05:20;11.30;49.30
30288;DHT22;17103;48.316;11.558;2022-11-14T04:07:50;11.30;49.10
30288;DHT22;17103;48.316;11.558;2022-11-14T04:10:18;11.40;49.10
30288;DHT22;17103;48.316;11.558;2022-11-14T04:12:51;11.30;49.00
30288;DHT22;17103;48.316;11.558;2022-11-14T04:15:17;11.30;49.20
30288;DHT22;17103;48.316;11.558;2022-11-14T04:17:44;12.10;50.00
30288;DHT22;17103;48.316;11.558;2022-11-14T04:20:11;12.00;49.90
30288;DHT22;17103;48.316;11.558;2022-11-14T04:22:37;11.40;49.40
30288;DHT22;17103;48.316;11.558;2022-11-14T04:25:04;11.40;49.30
30288;DHT22;17103;48.316;11.558;2022-11-14T04:27:30;11.40;49.20
30288;DHT22;17103;48.316;11.558;2022-11-14T04:29:56;11.40;49.10
30288;DHT22;17103;48.316;11.558;2022-11-14T04:32:22;11.40;49.00
30288;DHT22;17103;48.316;11.558;2022-11-14T04:34:48;11.50;49.10
30288;DHT22;17103;48.316;11.558;2022-11-14T04:37:14;11.40;48.90
30288;DHT22;17103;48.316;11.558;2022-11-14T04:39:39;12.10;49.30
30288;DHT22;17103;48.316;11.558;2022-11-14T04:42:05;11.40;48.70
30288;DHT22;17103;48.316;11.558;2022-11-14T04:44:30;11.30;48.50
30288;DHT22;17103;48.316;11.558;2022-11-14T04:46:57;11.30;48.50
30288;DHT22;17103;48.316;11.558;2022-11-14T04:49:23;11.30;48.80
30288;DHT22;17103;48.316;11.558;2022-11-14T04:51:49;11.20;48.70
30288;DHT22;17103;48.316;11.558;2022-11-14T04:54:15;11.20;48.50
30288;DHT22;17103;48.316;11.558;2022-11-14T04:56:46;11.20;48.70
30288;DHT22;17103;48.316;11.558;2022-11-14T04:59:13;11.70;49.30
30288;DHT22;17103;48.316;11.558;2022-11-14T05:01:40;11.10;48.90
30288;DHT22;17103;48.316;11.558;2022-11-14T05:04:06;11.10;49.00
30288;DHT22;17103;48.316;11.558;2022-11-14T05:06:31;11.20;49.30
30288;DHT22;17103;48.316;11.558;2022-11-14T05:08:58;11.20;49.30
30288;DHT22;17103;48.316;11.558;2022-11-14T05:11:25;11.20;49.20
30288;DHT22;17103;48.316;11.558;2022-11-14T05:13:50;11.30;49.10
30288;DHT22;17103;48.316;11.558;2022-11-14T05:16:18;11.30;49.00
30288;DHT22;17103;48.316;11.558;2022-11-14T05:18:44;11.40;49.00
30288;DHT22;17103;48.316;11.558;2022-11-14T05:21:18;12.10;49.20
30288;DHT22;17103;48.316;11.558;2022-11-14T05:23:44;11.50;48.50
30288;DHT22;17103;48.316;11.558;2022-11-14T05:26:13;12.30;48.90
30288;DHT22;17103;48.316;11.558;2022-11-14T05:28:39;11.40;48.00
30288;DHT22;17103;48.316;11.558;2022-11-14T05:31:08;11.80;48.30
30288;DHT22;17103;48.316;11.558;2022-11-14T05:33:35;11.70;48.00
30288;DHT22;17103;48.316;11.558;2022-11-14T05:36:04;11.60;47.90
30288;DHT22;17103;48.316;11.558;2022-11-14T05:38:32;11.40;47.80
30288;DHT22;17103;48.316;11.558;2022-11-14T05:40:58;11.70;48.10
30288;DHT22;17103;48.316;11.558;2022-11-14T05:43:24;11.30;47.80
30288;DHT22;17103;48.316;11.558;2022-11-14T05:45:50;11.30;47.90
30288;DHT22;17103;48.316;11.558;2022-11-14T05:48:16;11.20;47.80
30288;DHT22;17103;48.316;11.558;2022-11-14T05:50:43;11.20;47.90
30288;DHT22;17103;48.316;11.558;2022-11-14T05:53:08;11.70;48.40
30288;DHT22;17103;48.316;11.558;2022-11-14T05:55:34;11.10;48.40
30288;DHT22;17103;48.316;11.558;2022-11-14T05:58:02;11.10;47.90
30288;DHT22;17103;48.316;11.558;2022-11-14T06:00:30;11.00;47.80
30288;DHT22;17103;48.316;11.558;2022-11-14T06:02:56;11.00;47.80
30288;DHT22;17103;48.316;11.558;2022-11-14T06:05:22;11.00;47.80
30288;DHT22;17103;48.316;11.558;2022-11-14T06:07:54;10.90;47.80
30288;DHT22;17103;48.316;11.558;2022-11-14T06:10:20;10.80;47.80
30288;DHT22;17103;48.316;11.558;2022-11-14T06:12:47;10.80;47.80
30288;DHT22;17103;48.316;11.558;2022-11-14T06:15:12;10.80;47.90
30288;DHT22;17103;48.316;11.558;2022-11-14T06:17:38;10.80;47.90
30288;DHT22;17103;48.316;11.558;2022-11-14T06:20:04;10.70;47.90
30288;DHT22;17103;48.316;11.558;2022-11-14T06:22:30;10.70;47.90
30288;DHT22;17103;48.316;11.558;2022-11-14T06:24:56;10.70;48.00
30288;DHT22;17103;48.316;11.558;2022-11-14T06:27:22;10.70;48.10
30288;DHT22;17103;48.316;11.558;2022-11-14T06:29:48;11.40;48.60
30288;DHT22;17103;48.316;11.558;2022-11-14T06:32:13;10.60;48.00
30288;DHT22;17103;48.316;11.558;2022-11-14T06:34:39;10.60;48.00
30288;DHT22;17103;48.316;11.558;2022-11-14T06:37:05;10.60;48.00
30288;DHT22;17103;48.316;11.558;2022-11-14T06:39:31;10.50;47.90
30288;DHT22;17103;48.316;11.558;2022-11-14T06:41:57;10.60;48.00
30288;DHT22;17103;48.316;11.558;2022-11-14T06:44:22;10.50;47.90
30288;DHT22;17103;48.316;11.558;2022-11-14T06:46:48;10.50;47.90
30288;DHT22;17103;48.316;11.558;2022-11-14T06:49:14;10.50;47.80
30288;DHT22;17103;48.316;11.558;2022-11-14T06:51:39;10.40;47.80
30288;DHT22;17103;48.316;11.558;2022-11-14T06:54:05;10.40;47.80
30288;DHT22;17103;48.316;11.558;2022-11-14T06:56:31;10.40;47.90
30288;DHT22;17103;48.316;11.558;2022-11-14T06:58:56;10.30;47.90
30288;DHT22;17103;48.316;11.558;2022-11-14T07:01:24;10.30;48.00
30288;DHT22;17103;48.316;11.558;2022-11-14T07:03:52;11.00;48.70
30288;DHT22;17103;48.316;11.558;2022-11-14T07:06:21;10.30;48.20
30288;DHT22;17103;48.316;11.558;2022-11-14T07:08:46;10.20;48.20
30288;DHT22;17103;48.316;11.558;2022-11-14T07:11:18;10.20;48.40
30288;DHT22;17103;48.316;11.558;2022-11-14T07:13:52;10.20;48.30
30288;DHT22;17103;48.316;11.558;2022-11-14T07:16:24;10.20;48.30
30288;DHT22;17103;48.316;11.558;2022-11-14T07:18:52;10.90;48.90
30288;DHT22;17103;48.316;11.558;2022-11-14T07:21:18;10.20;48.40
30288;DHT22;17103;48.316;11.558;2022-11-14T07:23:44;10.20;48.40
30288;DHT22;17103;48.316;11.558;2022-11-14T07:26:10;10.20;48.30
30288;DHT22;17103;48.316;11.558;2022-11-14T07:28:42;10.20;48.40
30288;DHT22;17103;48.316;11.558;2022-11-14T07:31:10;10.20;48.50
30288;DHT22;17103;48.316;11.558;2022-11-14T07:33:37;10.20;48.30
30288;DHT22;17103;48.316;11.558;2022-11-14T07:36:04;10.20;48.30
30288;DHT22;17103;48.316;11.558;2022-11-14T07:38:30;10.20;48.40
30288;DHT22;17103;48.316;11.558;2022-11-14T07:40:58;10.20;48.50
30288;DHT22;17103;48.316;11.558;2022-11-14T07:43:24;10.20;48.50
30288;DHT22;17103;48.316;11.558;2022-11-14T07:45:52;10.20;48.50
30288;DHT22;17103;48.316;11.558;2022-11-14T07:48:18;10.20;48.40
30288;DHT22;17103;48.316;11.558;2022-11-14T07:50:46;10.20;48.40
30288;DHT22;17103;48.316;11.558;2022-11-14T07:53:12;10.20;48.40
30288;DHT22;17103;48.316;11.558;2022-11-14T07:55:38;10.20;48.40
30288;DHT22;17103;48.316;11.558;2022-11-14T07:58:04;10.20;48.40
30288;DHT22;17103;48.316;11.558;2022-11-14T08:00:30;10.50;48.70
30288;DHT22;17103;48.316;11.558;2022-11-14T08:02:56;10.20;48.40
30288;DHT22;17103;48.316;11.558;2022-11-14T08:05:22;10.20;48.30
30288;DHT22;17103;48.316;11.558;2022-11-14T08:07:51;10.20;48.30
30288;DHT22;17103;48.316;11.558;2022-11-14T08:10:17;10.20;48.40
30288;DHT22;17103;48.316;11.558;2022-11-14T08:12:44;10.30;48.50
30288;DHT22;17103;48.316;11.558;2022-11-14T08:15:11;10.30;48.50
30288;DHT22;17103;48.316;11.558;2022-11-14T08:17:38;10.30;48.40
30288;DHT22;17103;48.316;11.558;2022-11-14T08:20:05;10.20;48.40
30288;DHT22;17103;48.316;11.558;2022-11-14T08:22:31;10.20;48.40
30288;DHT22;17103;48.316;11.558;2022-11-14T08:24:57;10.20;48.40
30288;DHT22;17103;48.316;11.558;2022-11-14T08:27:23;10.20;48.40
30288;DHT22;17103;48.316;11.558;2022-11-14T08:29:49;10.30;48.40
30288;DHT22;17103;48.316;11.558;2022-11-14T08:32:16;10.20;48.20
30288;DHT22;17103;48.316;11.558;2022-11-14T08:34:42;10.20;48.10
30288;DHT22;17103;48.316;11.558;2022-11-14T08:37:08;11.10;48.80
30288;DHT22;17103;48.316;11.558;2022-11-14T08:39:33;10.30;48.10
30288;DHT22;17103;48.316;11.558;2022-11-14T08:41:59;10.30;48.20
30288;DHT22;17103;48.316;11.558;2022-11-14T08:44:25;10.30;48.20
30288;DHT22;17103;48.316;11.558;2022-11-14T08:46:51;10.30;48.20
30288;DHT22;17103;48.316;11.558;2022-11-14T08:49:16;10.30;48.30
30288;DHT22;17103;48.316;11.558;2022-11-14T08:51:42;10.20;48.30
30288;DHT22;17103;48.316;11.558;2022-11-14T08:54:08;10.20;48.30
30288;DHT22;17103;48.316;11.558;2022-11-14T08:56:33;10.20;48.30
30288;DHT22;17103;48.316;11.558;2022-11-14T08:59:02;10.20;48.40
30288;DHT22;17103;48.316;11.558;2022-11-14T09:01:28;10.20;48.50
30288;DHT22;17103;48.316;11.558;2022-11-14T09:03:53;11.00;49.20
30288;DHT22;17103;48.316;11.558;2022-11-14T09:06:19;10.20;48.50
30288;DHT22;17103;48.316;11.558;2022-11-14T09:08:44;10.20;48.40
30288;DHT22;17103;48.316;11.558;2022-11-14T09:11:10;10.30;48.40
30288;DHT22;17103;48.316;11.558;2022-11-14T09:13:36;10.20;48.40
30288;DHT22;17103;48.316;11.558;2022-11-14T09:16:01;10.50;48.60
30288;DHT22;17103;48.316;11.558;2022-11-14T09:18:28;10.20;48.10
30288;DHT22;17103;48.316;11.558;2022-11-14T09:21:02;10.20;48.00
30288;DHT22;17103;48.316;11.558;2022-11-14T09:23:29;10.20;47.90
30288;DHT22;17103;48.316;11.558;2022-11-14T09:25:54;10.90;48.40
30288;DHT22;17103;48.316;11.558;2022-11-14T09:28:22;10.10;47.70
30288;DHT22;17103;48.316;11.558;2022-11-14T09:30:48;10.30;48.00
30288;DHT22;17103;48.316;11.558;2022-11-14T09:33:23;10.00;47.90
30288;DHT22;17103;48.316;11.558;2022-11-14T09:35:55;10.10;48.50
30288;DHT22;17103;48.316;11.558;2022-11-14T09:38:21;9.80;49.20
30288;DHT22;17103;48.316;11.558;2022-11-14T09:46:25;9.50;49.70
30288;DHT22;17103;48.316;11.558;2022-11-14T09:48:51;9.40;49.90
30288;DHT22;17103;48.316;11.558;2022-11-14T09:51:35;9.40;49.90
30288;DHT22;17103;48.316;11.558;2022-11-14T09:56:45;9.40;50.80
30288;DHT22;17103;48.316;11.558;2022-11-14T09:59:12;9.40;50.70
30288;DHT22;17103;48.316;11.558;2022-11-14T10:07:19;9.50;51.40
30288;DHT22;17103;48.316;11.558;2022-11-14T10:15:57;9.80;51.50
30288;DHT22;17103;48.316;11.558;2022-11-14T10:20:53;9.90;51.30
30288;DHT22;17103;48.316;11.558;2022-11-14T10:26:22;10.00;50.40
30288;DHT22;17103;48.316;11.558;2022-11-14T10:34:27;10.00;50.40
30288;DHT22;17103;48.316;11.558;2022-11-14T10:40:14;10.00;50.80
30288;DHT22;17103;48.316;11.558;2022-11-14T10:42:45;10.00;50.70
30288;DHT22;17103;48.316;11.558;2022-11-14T10:45:24;10.00;51.00
30288;DHT22;17103;48.316;11.558;2022-11-14T10:48:08;10.00;51.30
30288;DHT22;17103;48.316;11.558;2022-11-14T10:56:32;9.90;52.20
30288;DHT22;17103;48.316;11.558;2022-11-14T10:58:57;9.90;52.80
30288;DHT22;17103;48.316;11.558;2022-11-14T11:01:43;9.80;52.60
30288;DHT22;17103;48.316;11.558;2022-11-14T11:04:28;9.80;53.00
30288;DHT22;17103;48.316;11.558;2022-11-14T11:09:38;9.80;53.20
30288;DHT22;17103;48.316;11.558;2022-11-14T11:15:22;9.70;53.80
30288;DHT22;17103;48.316;11.558;2022-11-14T11:18:03;9.70;54.40
30288;DHT22;17103;48.316;11.558;2022-11-14T11:20:34;9.70;54.40
30288;DHT22;17103;48.316;11.558;2022-11-14T11:23:05;9.70;54.50
30288;DHT22;17103;48.316;11.558;2022-11-14T11:25:33;9.70;55.40
30288;DHT22;17103;48.316;11.558;2022-11-14T11:28:20;9.70;55.40
30288;DHT22;17103;48.316;11.558;2022-11-14T11:31:02;9.70;56.00
30288;DHT22;17103;48.316;11.558;2022-11-14T11:33:31;9.70;56.30
30288;DHT22;17103;48.316;11.558;2022-11-14T11:36:02;10.50;55.20
30288;DHT22;17103;48.316;11.558;2022-11-14T11:38:31;9.70;55.70
30288;DHT22;17103;48.316;11.558;2022-11-14T11:41:21;9.80;55.70
30288;DHT22;17103;48.316;11.558;2022-11-14T11:44:05;9.80;56.00
30288;DHT22;17103;48.316;11.558;2022-11-14T11:57:23;10.00;54.90
30288;DHT22;17103;48.316;11.558;2022-11-14T11:59:58;10.00;54.90
30288;DHT22;17103;48.316;11.558;2022-11-14T12:02:27;10.00;54.90
30288;DHT22;17103;48.316;11.558;2022-11-14T12:04:55;10.20;55.00
30288;DHT22;17103;48.316;11.558;2022-11-14T12:07:40;10.10;55.30
30288;DHT22;17103;48.316;11.558;2022-11-14T12:10:31;10.10;55.90
30288;DHT22;17103;48.316;11.558;2022-11-14T12:13:09;10.20;55.80
30288;DHT22;17103;48.316;11.558;2022-11-14T12:19:00;10.20;56.60
30288;DHT22;17103;48.316;11.558;2022-11-14T12:22:01;10.30;56.80
30288;DHT22;17103;48.316;11.558;2022-11-14T12:27:53;10.50;56.90
30288;DHT22;17103;48.316;11.558;2022-11-14T12:30:23;10.60;57.10
30288;DHT22;17103;48.316;11.558;2022-11-14T12:35:34;10.80;56.70
30288;DHT22;17103;48.316;11.558;2022-11-14T12:38:05;10.90;57.30
30288;DHT22;17103;48.316;11.558;2022-11-14T12:40:40;11.10;57.30
30288;DHT22;17103;48.316;11.558;2022-11-14T12:43:40;11.30;57.30
30288;DHT22;17103;48.316;11.558;2022-11-14T12:46:14;11.70;58.20
30288;DHT22;17103;48.316;11.558;2022-11-14T12:48:41;12.30;58.20
30288;DHT22;17103;48.316;11.558;2022-11-14T12:53:52;12.10;57.20
30288;DHT22;17103;48.316;11.558;2022-11-14T13:04:30;13.20;56.50
30288;DHT22;17103;48.316;11.558;2022-11-14T13:10:13;13.70;55.10
30288;DHT22;17103;48.316;11.558;2022-11-14T13:12:41;13.90;54.70
30288;DHT22;17103;48.316;11.558;2022-11-14T13:15:29;14.00;54.40
30288;DHT22;17103;48.316;11.558;2022-11-14T13:18:20;14.30;54.00
30288;DHT22;17103;48.316;11.558;2022-11-14T13:21:20;14.40;53.40
30288;DHT22;17103;48.316;11.558;2022-11-14T13:24:05;14.60;53.50
30288;DHT22;17103;48.316;11.558;2022-11-14T13:28:56;14.90;52.80
30288;DHT22;17103;48.316;11.558;2022-11-14T13:31:24;15.00;52.50
30288;DHT22;17103;48.316;11.558;2022-11-14T13:42:10;15.40;52.60
30288;DHT22;17103;48.316;11.558;2022-11-14T13:50:34;15.80;51.30
30288;DHT22;17103;48.316;11.558;2022-11-14T13:53:25;15.90;51.10
30288;DHT22;17103;48.316;11.558;2022-11-14T14:10:48;16.60;50.00
30288;DHT22;17103;48.316;11.558;2022-11-14T14:16:12;16.70;50.40
30288;DHT22;17103;48.316;11.558;2022-11-14T14:19:06;16.70;50.30
30288;DHT22;17103;48.316;11.558;2022-11-14T14:22:01;16.90;50.40
30288;DHT22;17103;48.316;11.558;2022-11-14T14:24:52;17.00;50.40
30288;DHT22;17103;48.316;11.558;2022-11-14T14:32:38;17.30;49.20
30288;DHT22;17103;48.316;11.558;2022-11-14T14:35:33;17.30;49.00
30288;DHT22;17103;48.316;11.558;2022-11-14T14:37:59;17.40;48.50
30288;DHT22;17103;48.316;11.558;2022-11-14T14:40:31;17.40;49.40
30288;DHT22;17103;48.316;11.558;2022-11-14T14:43:03;17.40;48.70
30288;DHT22;17103;48.316;11.558;2022-11-14T14:45:44;17.00;48.20
30288;DHT22;17103;48.316;11.558;2022-11-14T14:48:13;17.20;47.70
30288;DHT22;17103;48.316;11.558;2022-11-14T14:50:41;17.40;48.10
30288;DHT22;17103;48.316;11.558;2022-11-14T14:53:28;17.50;47.80
30288;DHT22;17103;48.316;11.558;2022-11-14T14:55:58;17.30;47.20
30288;DHT22;17103;48.316;11.558;2022-11-14T14:58:28;17.40;47.60
30288;DHT22;17103;48.316;11.558;2022-11-14T15:01:04;17.30;47.10
30288;DHT22;17103;48.316;11.558;2022-11-14T15:03:35;17.30;46.90
30288;DHT22;17103;48.316;11.558;2022-11-14T15:06:17;17.90;47.30
30288;DHT22;17103;48.316;11.558;2022-11-14T15:08:48;17.10;47.10
30288;DHT22;17103;48.316;11.558;2022-11-14T15:11:14;17.10;46.50
30288;DHT22;17103;48.316;11.558;2022-11-14T15:13:40;17.50;46.90
30288;DHT22;17103;48.316;11.558;2022-11-14T15:16:07;16.90;46.40
30288;DHT22;17103;48.316;11.558;2022-11-14T15:18:34;16.80;46.30
30288;DHT22;17103;48.316;11.558;2022-11-14T15:23:45;16.70;46.10
30288;DHT22;17103;48.316;11.558;2022-11-14T15:26:16;16.60;46.30
30288;DHT22;17103;48.316;11.558;2022-11-14T15:28:43;16.50;46.10
30288;DHT22;17103;48.316;11.558;2022-11-14T15:31:18;16.40;46.30
30288;DHT22;17103;48.316;11.558;2022-11-14T15:33:45;16.30;46.00
30288;DHT22;17103;48.316;11.558;2022-11-14T15:36:26;16.30;46.30
30288;DHT22;17103;48.316;11.558;2022-11-14T15:39:21;16.20;46.20
30288;DHT22;17103;48.316;11.558;2022-11-14T15:41:46;16.10;46.10
30288;DHT22;17103;48.316;11.558;2022-11-14T15:44:32;16.00;46.20
30288;DHT22;17103;48.316;11.558;2022-11-14T15:46:58;16.00;46.10
30288;DHT22;17103;48.316;11.558;2022-11-14T15:49:25;15.90;46.30
30288;DHT22;17103;48.316;11.558;2022-11-14T15:52:01;15.70;46.10
30288;DHT22;17103;48.316;11.558;2022-11-14T15:54:31;15.60;46.10
30288;DHT22;17103;48.316;11.558;2022-11-14T15:57:16;15.60;46.40
30288;DHT22;17103;48.316;11.558;2022-11-14T15:59:42;15.50;46.30
30288;DHT22;17103;48.316;11.558;2022-11-14T16:02:15;15.40;46.40
30288;DHT22;17103;48.316;11.558;2022-11-14T16:04:48;15.30;46.30
30288;DHT22;17103;48.316;11.558;2022-11-14T16:07:16;15.90;46.90
30288;DHT22;17103;48.316;11.558;2022-11-14T16:09:43;15.20;46.50
30288;DHT22;17103;48.316;11.558;2022-11-14T16:12:09;15.00;46.50
30288;DHT22;17103;48.316;11.558;2022-11-14T16:14:35;15.10;46.70
30288;DHT22;17103;48.316;11.558;2022-11-14T16:17:01;14.90;46.60
30288;DHT22;17103;48.316;11.558;2022-11-14T16:19:27;14.80;46.30
30288;DHT22;17103;48.316;11.558;2022-11-14T16:22:00;14.80;47.00
30288;DHT22;17103;48.316;11.558;2022-11-14T16:24:28;14.70;46.90
30288;DHT22;17103;48.316;11.558;2022-11-14T16:26:55;14.80;47.00
30288;DHT22;17103;48.316;11.558;2022-11-14T16:29:22;15.00;47.40
30288;DHT22;17103;48.316;11.558;2022-11-14T16:31:49;14.60;47.10
30288;DHT22;17103;48.316;11.558;2022-11-14T16:34:21;14.60;47.20
30288;DHT22;17103;48.316;11.558;2022-11-14T16:36:47;14.40;47.20
30288;DHT22;17103;48.316;11.558;2022-11-14T16:39:15;14.80;47.60
30288;DHT22;17103;48.316;11.558;2022-11-14T16:41:42;14.40;47.40
30288;DHT22;17103;48.316;11.558;2022-11-14T16:44:13;14.30;47.40
30288;DHT22;17103;48.316;11.558;2022-11-14T16:46:42;14.30;47.50
30288;DHT22;17103;48.316;11.558;2022-11-14T16:49:13;14.20;47.50
30288;DHT22;17103;48.316;11.558;2022-11-14T16:51:40;14.20;47.60
30288;DHT22;17103;48.316;11.558;2022-11-14T16:54:10;14.10;47.50
30288;DHT22;17103;48.316;11.558;2022-11-14T16:56:39;12.80;46.60
30288;DHT22;17103;48.316;11.558;2022-11-14T16:59:08;14.50;48.00
30288;DHT22;17103;48.316;11.558;2022-11-14T17:01:36;14.00;47.60
30288;DHT22;17103;48.316;11.558;2022-11-14T17:04:02;14.00;47.70
30288;DHT22;17103;48.316;11.558;2022-11-14T17:06:33;13.90;47.70
30288;DHT22;17103;48.316;11.558;2022-11-14T17:09:06;13.90;47.70
30288;DHT22;17103;48.316;11.558;2022-11-14T17:11:34;13.90;47.70
30288;DHT22;17103;48.316;11.558;2022-11-14T17:14:00;13.80;47.70
30288;DHT22;17103;48.316;11.558;2022-11-14T17:16:27;13.20;47.10
30288;DHT22;17103;48.316;11.558;2022-11-14T17:18:54;13.80;47.70
30288;DHT22;17103;48.316;11.558;2022-11-14T17:21:29;13.80;47.60
30288;DHT22;17103;48.316;11.558;2022-11-14T17:24:04;13.70;47.60
30288;DHT22;17103;48.316;11.558;2022-11-14T17:26:31;13.70;47.50
30288;DHT22;17103;48.316;11.558;2022-11-14T17:28:56;14.30;48.30
30288;DHT22;17103;48.316;11.558;2022-11-14T17:31:22;13.60;47.50
30288;DHT22;17103;48.316;11.558;2022-11-14T17:33:52;13.40;47.40